createdAt,value
2023-03-17T00:00:54.872Z,73.40
2023-03-17T00:02:00.516Z,73.60
2023-03-17T00:03:04.718Z,73.60
2023-03-17T00:04:11.881Z,73.60
2023-03-17T00:05:23.246Z,73.50
2023-03-17T00:06:31.280Z,73.50
2023-03-17T00:07:33.738Z,73.70
2023-03-17T00:08:37.749Z,73.70
2023-03-17T00:09:40.834Z,73.80
2023-03-17T00:10:44.764Z,73.80
2023-03-17T00:11:47.816Z,73.80
2023-03-17T00:12:53.441Z,73.90
2023-03-17T00:13:56.087Z,73.90
2023-03-17T00:14:59.775Z,74.00
2023-03-17T00:16:04.886Z,74.00
2023-03-17T00:17:14.268Z,74.10
2023-03-17T00:18:20.544Z,74.10
2023-03-17T00:19:31.063Z,74.20
2023-03-17T00:20:35.130Z,74.20
2023-03-17T00:21:38.956Z,74.30
2023-03-17T00:22:42.932Z,74.40
2023-03-17T00:23:49.976Z,74.50
2023-03-17T00:24:53.883Z,74.60
2023-03-17T00:25:57.418Z,74.70
2023-03-17T00:27:00.906Z,74.50
2023-03-17T00:28:04.831Z,74.50
2023-03-17T00:29:08.565Z,74.60
2023-03-17T00:30:13.024Z,74.60
2023-03-17T00:31:20.962Z,74.80
2023-03-17T00:32:25.445Z,74.90
2023-03-17T00:33:33.266Z,74.90
2023-03-17T00:34:36.868Z,74.80
2023-03-17T00:35:40.768Z,74.80
2023-03-17T00:36:46.911Z,74.80
2023-03-17T00:37:52.539Z,75.00
2023-03-17T00:38:57.364Z,75.00
2023-03-17T00:40:01.021Z,74.90
2023-03-17T00:41:04.673Z,74.90
2023-03-17T00:42:08.001Z,75.00
2023-03-17T00:43:12.655Z,75.00
2023-03-17T00:44:15.580Z,75.10
2023-03-17T00:45:21.343Z,75.00
2023-03-17T00:46:28.553Z,75.10
2023-03-17T00:47:35.212Z,75.00
2023-03-17T00:48:38.329Z,75.00
2023-03-17T00:49:41.928Z,75.00
2023-03-17T00:50:47.899Z,75.00
2023-03-17T00:51:52.741Z,75.10
2023-03-17T00:52:58.216Z,75.20
2023-03-17T00:54:01.922Z,75.40
2023-03-17T00:55:06.298Z,75.40
2023-03-17T00:56:15.505Z,75.40
2023-03-17T00:57:18.595Z,75.20
2023-03-17T00:58:28.893Z,75.10
2023-03-17T00:59:39.046Z,75.30
2023-03-17T01:00:47.462Z,74.40
2023-03-17T01:01:50.284Z,74.80
2023-03-17T01:02:57.385Z,74.80
2023-03-17T01:03:59.955Z,75.00
2023-03-17T01:05:06.673Z,75.10
2023-03-17T01:06:13.180Z,75.20
2023-03-17T01:07:17.057Z,75.10
2023-03-17T01:08:23.638Z,75.30
2023-03-17T01:09:29.021Z,75.30
2023-03-17T01:10:33.535Z,75.30
2023-03-17T01:11:37.325Z,75.30
2023-03-17T01:12:40.106Z,75.20
2023-03-17T01:13:43.922Z,75.20
2023-03-17T01:14:47.015Z,75.40
2023-03-17T01:15:53.834Z,75.50
2023-03-17T01:16:56.411Z,75.70
2023-03-17T01:18:02.868Z,75.70
2023-03-17T01:19:06.269Z,75.70
2023-03-17T01:20:17.886Z,75.70
2023-03-17T01:21:20.709Z,75.70
2023-03-17T01:22:24.690Z,76.00
2023-03-17T01:23:27.442Z,75.90
2023-03-17T01:24:31.917Z,75.80
2023-03-17T01:25:34.591Z,76.00
2023-03-17T01:26:39.246Z,75.90
2023-03-17T01:27:42.538Z,76.00
2023-03-17T01:28:48.034Z,75.90
2023-03-17T01:29:53.910Z,76.00
2023-03-17T01:30:57.781Z,76.00
2023-03-17T01:32:00.474Z,75.90
2023-03-17T01:33:07.145Z,75.90
2023-03-17T01:34:10.274Z,75.80
2023-03-17T01:35:14.171Z,75.80
2023-03-17T01:36:17.828Z,76.00
2023-03-17T01:37:21.436Z,75.90
2023-03-17T01:38:24.673Z,75.90
2023-03-17T01:39:28.522Z,76.00
2023-03-17T01:40:34.898Z,75.90
2023-03-17T01:41:40.205Z,76.20
2023-03-17T01:42:48.927Z,76.20
2023-03-17T01:43:52.740Z,76.20
2023-03-17T01:45:01.044Z,76.20
2023-03-17T01:46:25.891Z,76.20
2023-03-17T01:47:32.067Z,76.20
2023-03-17T01:48:43.008Z,76.30
2023-03-17T01:49:49.039Z,76.40
2023-03-17T01:50:53.834Z,76.20
2023-03-17T01:52:06.269Z,76.20
2023-03-17T01:53:11.798Z,76.30
2023-03-17T01:54:18.718Z,76.50
2023-03-17T01:55:23.073Z,76.50
2023-03-17T01:56:25.995Z,76.10
2023-03-17T01:57:33.929Z,76.30
2023-03-17T01:58:37.338Z,76.30
2023-03-17T01:59:47.686Z,76.20
2023-03-17T02:00:50.782Z,76.50
2023-03-17T02:01:59.382Z,76.40
2023-03-17T02:03:02.243Z,76.40
2023-03-17T02:04:09.560Z,76.50
2023-03-17T02:05:17.075Z,76.40
2023-03-17T02:06:21.004Z,76.40
2023-03-17T02:07:24.642Z,76.40
2023-03-17T02:08:28.180Z,76.50
2023-03-17T02:09:31.769Z,76.40
2023-03-17T02:10:35.462Z,76.10
2023-03-17T02:11:38.960Z,76.30
2023-03-17T02:12:45.574Z,76.40
2023-03-17T02:13:48.188Z,76.40
2023-03-17T02:14:51.899Z,76.50
2023-03-17T02:15:54.605Z,76.40
2023-03-17T02:16:58.499Z,76.50
2023-03-17T02:18:01.111Z,76.60
2023-03-17T02:19:06.138Z,76.50
2023-03-17T02:20:46.727Z,76.60
2023-03-17T02:21:55.914Z,76.70
2023-03-17T02:22:59.010Z,76.70
2023-03-17T02:24:05.467Z,76.70
2023-03-17T02:25:09.408Z,76.60
2023-03-17T02:26:12.562Z,76.70
2023-03-17T02:27:21.263Z,76.70
2023-03-17T02:28:29.989Z,76.70
2023-03-17T02:29:37.930Z,76.70
2023-03-17T02:30:40.976Z,76.50
2023-03-17T02:31:46.057Z,76.60
2023-03-17T02:32:48.884Z,76.70
2023-03-17T02:33:52.517Z,76.70
2023-03-17T02:34:55.118Z,76.50
2023-03-17T02:35:58.705Z,76.60
2023-03-17T02:37:02.576Z,76.50
2023-03-17T02:38:07.409Z,76.50
2023-03-17T02:39:09.963Z,76.50
2023-03-17T02:40:15.107Z,76.60
2023-03-17T02:41:17.764Z,76.60
2023-03-17T02:42:22.098Z,76.60
2023-03-17T02:43:24.744Z,76.60
2023-03-17T02:44:33.039Z,76.70
2023-03-17T02:45:36.764Z,76.70
2023-03-17T02:46:40.352Z,76.70
2023-03-17T02:47:42.998Z,76.70
2023-03-17T02:48:47.620Z,76.70
2023-03-17T02:49:50.695Z,76.80
2023-03-17T02:50:54.406Z,76.90
2023-03-17T02:51:57.447Z,76.80
2023-03-17T02:53:02.382Z,76.80
2023-03-17T02:54:09.280Z,76.70
2023-03-17T02:55:14.301Z,76.50
2023-03-17T02:56:17.060Z,76.50
2023-03-17T02:57:21.525Z,76.50
2023-03-17T02:58:24.145Z,76.40
2023-03-17T02:59:27.967Z,76.50
2023-03-17T03:00:30.792Z,76.50
2023-03-17T03:01:34.830Z,76.50
2023-03-17T03:02:37.565Z,76.40
2023-03-17T03:03:41.479Z,76.40
2023-03-17T03:04:44.669Z,76.40
2023-03-17T03:05:49.296Z,76.50
2023-03-17T03:06:52.452Z,76.60
2023-03-17T03:07:56.108Z,76.50
2023-03-17T03:09:01.016Z,76.40
2023-03-17T03:10:04.144Z,76.50
2023-03-17T03:11:28.259Z,76.50
2023-03-17T03:12:36.285Z,76.70
2023-03-17T03:13:39.913Z,76.70
2023-03-17T03:14:42.603Z,76.50
2023-03-17T03:15:46.618Z,76.50
2023-03-17T03:16:49.230Z,76.40
2023-03-17T03:17:52.945Z,76.40
2023-03-17T03:18:56.922Z,76.40
2023-03-17T03:20:00.175Z,76.50
2023-03-17T03:21:04.385Z,76.60
2023-03-17T03:22:07.139Z,76.60
2023-03-17T03:23:11.012Z,76.50
2023-03-17T03:24:15.227Z,76.60
2023-03-17T03:25:19.040Z,76.60
2023-03-17T03:26:21.987Z,76.60
2023-03-17T03:27:25.796Z,76.50
2023-03-17T03:28:28.334Z,76.50
2023-03-17T03:29:32.111Z,76.50
2023-03-17T03:30:36.489Z,76.60
2023-03-17T03:31:40.019Z,76.70
2023-03-17T03:32:42.829Z,76.60
2023-03-17T03:33:46.790Z,76.60
2023-03-17T03:34:49.797Z,76.70
2023-03-17T03:35:55.539Z,76.60
2023-03-17T03:36:58.021Z,76.60
2023-03-17T03:38:02.185Z,76.60
2023-03-17T03:39:05.810Z,76.70
2023-03-17T03:40:12.785Z,76.60
2023-03-17T03:41:16.356Z,76.60
2023-03-17T03:42:19.130Z,76.60
2023-03-17T03:43:24.248Z,76.60
2023-03-17T03:44:27.338Z,76.70
2023-03-17T03:45:31.226Z,76.70
2023-03-17T03:46:34.046Z,76.70
2023-03-17T03:47:37.937Z,76.70
2023-03-17T03:48:40.712Z,76.70
2023-03-17T03:49:44.354Z,76.70
2023-03-17T03:50:48.072Z,76.70
2023-03-17T03:51:50.553Z,76.70
2023-03-17T03:52:54.335Z,76.70
2023-03-17T03:53:56.952Z,76.80
2023-03-17T03:55:00.444Z,76.80
2023-03-17T03:56:05.270Z,76.80
2023-03-17T03:57:08.839Z,76.80
2023-03-17T03:58:11.618Z,76.80
2023-03-17T03:59:15.159Z,76.80
2023-03-17T04:00:18.826Z,76.80
2023-03-17T04:01:22.953Z,76.90
2023-03-17T04:02:25.689Z,76.80
2023-03-17T04:03:29.303Z,76.80
2023-03-17T04:04:31.905Z,76.90
2023-03-17T04:05:36.014Z,76.80
2023-03-17T04:06:39.898Z,76.80
2023-03-17T04:07:43.450Z,77.00
2023-03-17T04:08:46.139Z,77.00
2023-03-17T04:09:50.403Z,76.90
2023-03-17T04:10:53.008Z,77.10
2023-03-17T04:11:58.130Z,76.90
2023-03-17T04:13:01.397Z,77.00
2023-03-17T04:14:06.582Z,77.00
2023-03-17T04:15:14.163Z,77.10
2023-03-17T04:16:17.837Z,77.10
2023-03-17T04:17:20.591Z,77.20
2023-03-17T04:18:24.299Z,77.20
2023-03-17T04:19:27.527Z,77.10
2023-03-17T04:20:31.326Z,77.20
2023-03-17T04:21:34.122Z,77.20
2023-03-17T04:22:37.932Z,77.20
2023-03-17T04:23:40.861Z,77.30
2023-03-17T04:24:44.466Z,77.20
2023-03-17T04:25:48.041Z,77.10
2023-03-17T04:26:50.647Z,77.30
2023-03-17T04:27:55.773Z,77.30
2023-03-17T04:28:58.801Z,77.20
2023-03-17T04:30:03.613Z,77.30
2023-03-17T04:31:07.721Z,77.30
2023-03-17T04:32:13.432Z,77.30
2023-03-17T04:33:16.044Z,77.20
2023-03-17T04:34:20.525Z,77.10
2023-03-17T04:35:23.464Z,77.20
2023-03-17T04:36:27.148Z,77.20
2023-03-17T04:37:32.309Z,77.20
2023-03-17T04:38:36.694Z,77.10
2023-03-17T04:39:40.587Z,77.10
2023-03-17T04:40:43.143Z,77.10
2023-03-17T04:41:46.840Z,77.10
2023-03-17T04:42:49.424Z,77.10
2023-03-17T04:43:54.657Z,77.10
2023-03-17T04:44:57.553Z,77.10
2023-03-17T04:46:01.390Z,77.20
2023-03-17T04:47:04.387Z,77.20
2023-03-17T04:48:08.026Z,77.20
2023-03-17T04:49:10.665Z,77.20
2023-03-17T04:50:15.370Z,77.20
2023-03-17T04:51:18.046Z,77.10
2023-03-17T04:52:21.856Z,77.20
2023-03-17T04:53:24.735Z,77.20
2023-03-17T04:54:29.012Z,77.10
2023-03-17T04:55:31.800Z,77.20
2023-03-17T04:56:36.225Z,77.20
2023-03-17T04:57:39.216Z,77.30
2023-03-17T04:58:43.578Z,77.20
2023-03-17T04:59:48.866Z,77.20
2023-03-17T05:00:52.200Z,77.30
2023-03-17T05:01:56.032Z,77.30
2023-03-17T05:02:59.317Z,77.30
2023-03-17T05:04:03.731Z,77.20
2023-03-17T05:05:07.005Z,77.20
2023-03-17T05:06:11.014Z,77.20
2023-03-17T05:07:14.183Z,77.20
2023-03-17T05:08:18.171Z,77.20
2023-03-17T05:09:20.939Z,77.30
2023-03-17T05:10:24.415Z,77.30
2023-03-17T05:11:27.115Z,77.30
2023-03-17T05:12:30.639Z,77.30
2023-03-17T05:13:33.469Z,77.30
2023-03-17T05:14:37.281Z,77.20
2023-03-17T05:15:41.324Z,77.10
2023-03-17T05:16:47.786Z,77.20
2023-03-17T05:17:50.562Z,77.20
2023-03-17T05:18:55.193Z,77.20
2023-03-17T05:19:57.914Z,77.10
2023-03-17T05:21:01.605Z,77.10
2023-03-17T05:22:05.260Z,77.00
2023-03-17T05:23:08.174Z,77.10
2023-03-17T05:24:12.061Z,77.10
2023-03-17T05:25:14.481Z,76.90
2023-03-17T05:26:18.803Z,77.00
2023-03-17T05:27:22.585Z,76.90
2023-03-17T05:28:27.764Z,76.90
2023-03-17T05:29:30.238Z,76.80
2023-03-17T05:30:36.590Z,76.90
2023-03-17T05:31:40.561Z,76.90
2023-03-17T05:32:44.223Z,76.80
2023-03-17T05:33:49.212Z,76.60
2023-03-17T05:34:53.319Z,76.80
2023-03-17T05:35:56.226Z,76.70
2023-03-17T05:37:00.131Z,76.70
2023-03-17T05:38:02.606Z,76.70
2023-03-17T05:39:06.181Z,76.70
2023-03-17T05:40:10.831Z,76.70
2023-03-17T05:41:14.328Z,76.70
2023-03-17T05:42:17.021Z,76.70
2023-03-17T05:43:22.336Z,76.70
2023-03-17T05:44:24.954Z,76.70
2023-03-17T05:45:28.681Z,76.60
2023-03-17T05:46:32.060Z,76.60
2023-03-17T05:47:37.392Z,76.60
2023-03-17T05:48:40.053Z,76.60
2023-03-17T05:49:43.626Z,76.80
2023-03-17T05:50:46.254Z,76.80
2023-03-17T05:51:50.022Z,76.80
2023-03-17T05:52:53.535Z,76.70
2023-03-17T05:53:57.576Z,76.70
2023-03-17T05:55:00.196Z,76.70
2023-03-17T05:56:04.044Z,76.70
2023-03-17T05:57:07.746Z,76.60
2023-03-17T05:58:11.451Z,76.70
2023-03-17T05:59:15.784Z,76.70
2023-03-17T06:00:21.562Z,76.70
2023-03-17T06:01:24.177Z,76.70
2023-03-17T06:02:28.235Z,76.70
2023-03-17T06:03:33.419Z,76.70
2023-03-17T06:04:36.199Z,76.70
2023-03-17T06:05:39.863Z,76.80
2023-03-17T06:06:42.534Z,76.80
2023-03-17T06:07:54.690Z,76.80
2023-03-17T06:09:05.893Z,76.70
2023-03-17T06:10:10.546Z,76.70
2023-03-17T06:11:15.141Z,76.70
2023-03-17T06:12:18.520Z,76.70
2023-03-17T06:13:22.441Z,76.80
2023-03-17T06:14:27.083Z,76.80
2023-03-17T06:15:31.703Z,76.70
2023-03-17T06:16:34.822Z,76.80
2023-03-17T06:17:39.072Z,76.80
2023-03-17T06:18:43.270Z,76.80
2023-03-17T06:19:49.420Z,76.80
2023-03-17T06:20:54.603Z,76.70
2023-03-17T06:22:03.257Z,76.70
2023-03-17T06:23:07.317Z,76.70
2023-03-17T06:24:13.524Z,76.70
2023-03-17T06:25:17.590Z,76.60
2023-03-17T06:26:20.354Z,76.70
2023-03-17T06:27:25.178Z,76.60
2023-03-17T06:28:32.093Z,76.70
2023-03-17T06:29:49.646Z,76.60
2023-03-17T06:31:00.138Z,76.60
2023-03-17T06:32:20.375Z,76.50
2023-03-17T06:33:25.054Z,76.40
2023-03-17T06:34:39.147Z,76.30
2023-03-17T06:35:43.039Z,76.20
2023-03-17T06:36:46.054Z,76.00
2023-03-17T06:37:50.036Z,75.90
2023-03-17T06:38:52.756Z,76.00
2023-03-17T06:39:56.782Z,76.00
2023-03-17T06:40:59.484Z,75.90
2023-03-17T06:42:05.312Z,75.80
2023-03-17T06:43:09.836Z,75.60
2023-03-17T06:44:13.289Z,75.40
2023-03-17T06:45:17.506Z,75.00
2023-03-17T06:46:20.249Z,74.60
2023-03-17T06:47:25.963Z,74.10
2023-03-17T06:48:28.935Z,73.60
2023-03-17T06:49:34.259Z,73.30
2023-03-17T06:50:38.134Z,72.80
2023-03-17T06:51:41.434Z,72.30
2023-03-17T06:52:46.832Z,72.00
2023-03-17T06:53:50.732Z,71.60
2023-03-17T06:54:54.354Z,71.30
2023-03-17T06:55:58.368Z,70.80
2023-03-17T06:57:01.071Z,70.70
2023-03-17T06:58:05.085Z,70.50
2023-03-17T06:59:07.972Z,70.50
2023-03-17T07:00:14.165Z,70.30
2023-03-17T07:01:17.915Z,70.10
2023-03-17T07:02:21.499Z,69.80
2023-03-17T07:03:25.580Z,69.80
2023-03-17T07:04:29.506Z,69.10
2023-03-17T07:05:33.953Z,68.90
2023-03-17T07:06:37.763Z,68.70
2023-03-17T07:07:41.092Z,68.50
2023-03-17T07:08:44.885Z,68.20
2023-03-17T07:09:48.099Z,68.00
2023-03-17T07:10:51.961Z,68.00
2023-03-17T07:11:54.483Z,68.00
2023-03-17T07:12:59.187Z,67.80
2023-03-17T07:14:03.739Z,67.60
2023-03-17T07:15:09.302Z,67.80
2023-03-17T07:16:13.988Z,67.70
2023-03-17T07:17:18.750Z,67.50
2023-03-17T07:18:21.653Z,67.50
2023-03-17T07:19:25.339Z,67.30
2023-03-17T07:20:28.139Z,67.30
2023-03-17T07:21:32.940Z,67.30
2023-03-17T07:22:35.845Z,66.90
2023-03-17T07:23:39.834Z,66.90
2023-03-17T07:24:43.407Z,67.00
2023-03-17T07:25:47.564Z,67.20
2023-03-17T07:26:50.749Z,67.30
2023-03-17T07:27:54.758Z,67.30
2023-03-17T07:28:57.666Z,67.30
2023-03-17T07:30:04.368Z,67.20
2023-03-17T07:31:08.986Z,67.10
2023-03-17T07:32:13.145Z,67.10
2023-03-17T07:33:17.444Z,67.00
2023-03-17T07:34:22.341Z,67.10
2023-03-17T07:35:24.978Z,66.90
2023-03-17T07:36:28.900Z,67.00
2023-03-17T07:37:33.128Z,67.00
2023-03-17T07:38:37.057Z,66.90
2023-03-17T07:39:40.205Z,66.80
2023-03-17T07:40:43.889Z,67.00
2023-03-17T07:41:53.106Z,66.90
2023-03-17T07:42:56.379Z,66.80
2023-03-17T07:44:00.094Z,67.10
2023-03-17T07:45:03.987Z,66.90
2023-03-17T07:46:08.557Z,66.90
2023-03-17T07:47:12.052Z,66.80
2023-03-17T07:48:16.344Z,66.50
2023-03-17T07:49:33.988Z,66.20
2023-03-17T07:50:44.420Z,65.60
2023-03-17T07:51:47.046Z,65.80
2023-03-17T07:52:52.200Z,65.80
2023-03-17T07:54:03.262Z,65.90
2023-03-17T07:55:10.619Z,65.70
2023-03-17T07:56:14.293Z,65.10
2023-03-17T07:57:18.185Z,64.80
2023-03-17T07:58:21.890Z,63.10
2023-03-17T07:59:25.596Z,63.30
2023-03-17T08:00:29.436Z,63.20
2023-03-17T08:01:33.425Z,62.70
2023-03-17T08:02:37.103Z,62.20
2023-03-17T08:03:41.681Z,61.30
2023-03-17T08:04:45.697Z,61.10
2023-03-17T08:05:55.415Z,60.80
2023-03-17T08:06:58.530Z,60.40
2023-03-17T08:08:05.402Z,60.80
2023-03-17T08:09:09.501Z,60.10
2023-03-17T08:10:15.633Z,60.00
2023-03-17T08:11:19.010Z,59.60
2023-03-17T08:12:23.337Z,59.70
2023-03-17T08:13:26.049Z,58.40
2023-03-17T08:14:29.798Z,58.50
2023-03-17T08:15:32.465Z,57.30
2023-03-17T08:16:37.014Z,58.50
2023-03-17T08:17:40.464Z,58.10
2023-03-17T08:18:44.480Z,58.30
2023-03-17T08:20:52.014Z,57.90
2023-03-17T08:21:54.715Z,58.40
2023-03-17T08:22:58.422Z,57.10
2023-03-17T08:24:04.524Z,56.60
2023-03-17T08:25:09.642Z,56.30
2023-03-17T08:26:16.825Z,56.30
2023-03-17T08:28:25.203Z,54.90
2023-03-17T08:29:29.071Z,55.40
2023-03-17T08:30:33.906Z,54.10
2023-03-17T08:31:36.768Z,54.40
2023-03-17T08:32:41.281Z,54.20
2023-03-17T08:33:49.589Z,53.10
2023-03-17T08:34:55.575Z,53.20
2023-03-17T08:37:03.961Z,52.80
2023-03-17T08:38:07.950Z,53.30
2023-03-17T08:39:13.413Z,52.40
2023-03-17T08:40:20.159Z,52.10
2023-03-17T08:41:27.001Z,51.80
2023-03-17T08:42:30.705Z,51.50
2023-03-17T08:43:34.124Z,50.00
2023-03-17T08:44:37.904Z,50.10
2023-03-17T08:45:41.076Z,52.00
2023-03-17T08:46:45.686Z,50.20
2023-03-17T08:47:51.368Z,50.50
2023-03-17T08:48:57.388Z,53.00
2023-03-17T08:50:01.372Z,49.00
2023-03-17T08:51:06.935Z,49.00
2023-03-17T08:52:11.223Z,47.40
2023-03-17T08:53:14.229Z,46.20
2023-03-17T08:54:19.316Z,46.40
2023-03-17T08:55:22.016Z,47.10
2023-03-17T08:56:26.076Z,46.60
2023-03-17T08:57:28.858Z,46.90
2023-03-17T08:58:32.632Z,46.40
2023-03-17T08:59:35.674Z,44.90
2023-03-17T09:00:40.992Z,46.20
2023-03-17T09:01:45.607Z,46.10
2023-03-17T09:02:50.237Z,46.80
2023-03-17T09:03:56.029Z,46.60
2023-03-17T09:04:59.118Z,47.00
2023-03-17T09:06:04.692Z,46.10
2023-03-17T09:07:09.674Z,46.10
2023-03-17T09:08:13.844Z,45.40
2023-03-17T09:09:20.303Z,45.30
2023-03-17T09:10:23.721Z,46.10
2023-03-17T09:11:31.768Z,46.50
2023-03-17T09:12:34.721Z,46.40
2023-03-17T09:13:42.009Z,46.10
2023-03-17T09:14:47.455Z,46.40
2023-03-17T09:15:52.208Z,47.50
2023-03-17T09:16:56.982Z,45.40
2023-03-17T09:18:03.353Z,45.40
2023-03-17T09:19:07.151Z,45.90
2023-03-17T09:20:11.679Z,46.20
2023-03-17T09:21:17.374Z,47.10
2023-03-17T09:22:19.991Z,46.70
2023-03-17T09:23:24.358Z,46.90
2023-03-17T09:24:28.456Z,48.90
2023-03-17T09:25:32.221Z,46.70
2023-03-17T09:26:35.121Z,47.20
2023-03-17T09:27:38.878Z,46.40
2023-03-17T09:28:42.009Z,45.80
2023-03-17T09:29:46.324Z,45.50
2023-03-17T09:30:50.324Z,45.60
2023-03-17T09:31:55.098Z,45.80
2023-03-17T09:32:58.378Z,46.10
2023-03-17T09:34:02.124Z,45.50
2023-03-17T09:35:05.766Z,45.90
2023-03-17T09:36:11.062Z,46.60
2023-03-17T09:37:13.864Z,45.60
2023-03-17T09:38:18.006Z,45.80
2023-03-17T09:39:22.708Z,46.20
2023-03-17T09:40:35.437Z,46.30
2023-03-17T09:42:11.244Z,46.10
2023-03-17T09:43:30.322Z,46.30
2023-03-17T09:44:59.060Z,46.40
2023-03-17T09:46:18.996Z,47.30
2023-03-17T09:47:48.800Z,45.90
2023-03-17T09:49:00.336Z,45.70
2023-03-17T09:50:11.948Z,46.00
2023-03-17T09:51:20.415Z,46.20
2023-03-17T09:52:29.043Z,45.30
2023-03-17T09:53:37.866Z,45.70
2023-03-17T09:54:41.852Z,45.10
2023-03-17T09:58:11.982Z,44.90
2023-03-17T09:59:33.774Z,45.20
2023-03-17T10:00:36.677Z,45.40
2023-03-17T10:01:44.281Z,45.90
2023-03-17T10:02:47.496Z,46.60
2023-03-17T10:03:51.633Z,47.70
2023-03-17T10:04:54.441Z,47.80
2023-03-17T10:06:16.477Z,48.00
2023-03-17T10:07:27.167Z,48.50
2023-03-17T10:08:35.104Z,49.20
2023-03-17T10:09:44.555Z,49.70
2023-03-17T10:10:57.852Z,49.80
2023-03-17T10:12:10.854Z,49.90
2023-03-17T10:13:36.846Z,50.30
2023-03-17T10:14:55.750Z,49.90
2023-03-17T10:16:05.505Z,50.40
2023-03-17T10:17:18.663Z,50.00
2023-03-17T10:19:34.835Z,50.30
2023-03-17T10:20:51.517Z,49.30
2023-03-17T10:22:01.808Z,48.30
2023-03-17T10:23:08.862Z,48.70
2023-03-17T10:24:12.412Z,48.80
2023-03-17T10:25:19.749Z,48.20
2023-03-17T10:27:39.476Z,48.60
2023-03-17T10:28:43.129Z,48.20
2023-03-17T10:29:48.630Z,48.50
2023-03-17T10:30:52.878Z,48.70
2023-03-17T10:33:07.228Z,48.60
2023-03-17T10:34:16.105Z,48.10
2023-03-17T10:35:19.796Z,46.40
2023-03-17T10:36:36.582Z,45.60
2023-03-17T10:37:43.610Z,45.50
2023-03-17T10:38:52.600Z,45.50
2023-03-17T10:39:59.903Z,46.00
2023-03-17T10:41:11.259Z,45.90
2023-03-17T10:42:24.658Z,46.30
2023-03-17T10:43:31.155Z,46.50
2023-03-17T10:44:45.607Z,47.50
2023-03-17T10:45:59.611Z,47.70
2023-03-17T10:47:03.774Z,48.40
2023-03-17T10:48:09.946Z,49.00
2023-03-17T10:49:22.973Z,49.30
2023-03-17T10:50:31.420Z,49.90
2023-03-17T10:51:37.364Z,50.10
2023-03-17T10:52:42.267Z,50.50
2023-03-17T10:53:44.788Z,50.60
2023-03-17T10:54:51.481Z,50.30
2023-03-17T10:55:59.536Z,50.50
2023-03-17T10:57:08.266Z,51.10
2023-03-17T10:58:19.391Z,51.40
2023-03-17T11:00:38.855Z,51.80
2023-03-17T11:02:00.297Z,51.90
2023-03-17T11:03:15.123Z,52.10
2023-03-17T11:04:35.638Z,52.60
2023-03-17T11:05:39.754Z,52.70
2023-03-17T11:06:44.946Z,52.90
2023-03-17T11:07:48.703Z,53.10
2023-03-17T11:08:55.652Z,53.50
2023-03-17T11:10:02.467Z,53.50
2023-03-17T11:11:10.456Z,53.70
2023-03-17T11:12:26.465Z,54.00
2023-03-17T11:13:34.386Z,54.00
2023-03-17T11:14:37.568Z,54.30
2023-03-17T11:15:48.080Z,54.60
2023-03-17T11:16:55.274Z,54.90
2023-03-17T11:18:02.192Z,55.30
2023-03-17T11:19:11.823Z,55.70
2023-03-17T11:20:49.542Z,55.80
2023-03-17T11:22:05.084Z,55.90
2023-03-17T11:23:23.735Z,56.20
2023-03-17T11:24:33.707Z,56.60
2023-03-17T11:25:42.815Z,56.70
2023-03-17T11:26:53.512Z,57.10
2023-03-17T11:28:12.032Z,57.50
2023-03-17T11:29:48.154Z,57.80
2023-03-17T11:31:03.683Z,58.10
2023-03-17T11:32:27.090Z,58.20
2023-03-17T11:33:36.733Z,58.00
2023-03-17T11:34:58.733Z,58.00
2023-03-17T11:36:10.900Z,57.90
2023-03-17T11:37:31.540Z,57.90
2023-03-17T11:38:41.238Z,57.80
2023-03-17T11:39:53.344Z,57.90
2023-03-17T11:41:41.790Z,57.40
2023-03-17T11:42:59.938Z,57.40
2023-03-17T11:45:06.970Z,57.40
2023-03-17T11:46:16.032Z,57.00
2023-03-17T11:47:39.778Z,56.70
2023-03-17T11:48:55.211Z,56.60
2023-03-17T11:50:07.029Z,56.70
2023-03-17T11:51:22.985Z,56.40
2023-03-17T11:52:36.249Z,56.00
2023-03-17T11:53:56.612Z,55.70
2023-03-17T11:55:13.073Z,55.50
2023-03-17T11:56:21.814Z,55.40
2023-03-17T11:57:32.383Z,55.40
2023-03-17T11:58:42.565Z,55.20
2023-03-17T11:59:54.524Z,54.90
2023-03-17T12:01:00.846Z,55.20
2023-03-17T12:02:21.787Z,55.50
2023-03-17T12:03:35.265Z,55.80
2023-03-17T12:04:53.698Z,56.20
2023-03-17T12:06:05.601Z,56.30
2023-03-17T12:07:20.998Z,56.50
2023-03-17T12:08:36.501Z,55.50
2023-03-17T12:09:44.881Z,55.80
2023-03-17T12:10:54.224Z,56.00
2023-03-17T12:11:58.352Z,55.70
2023-03-17T12:13:08.476Z,55.80
2023-03-17T12:14:27.940Z,55.20
2023-03-17T12:15:36.844Z,54.80
2023-03-17T12:16:46.384Z,54.10
2023-03-17T12:17:59.039Z,54.30
2023-03-17T12:19:12.249Z,54.20
2023-03-17T12:20:21.357Z,54.10
2023-03-17T12:21:30.996Z,54.40
2023-03-17T12:22:42.412Z,54.00
2023-03-17T12:23:49.673Z,54.50
2023-03-17T12:25:10.940Z,54.50
2023-03-17T12:26:18.459Z,54.70
2023-03-17T12:27:29.304Z,54.60
2023-03-17T12:28:42.432Z,54.60
2023-03-17T12:29:53.451Z,54.80
2023-03-17T12:31:05.957Z,54.90
2023-03-17T12:32:17.051Z,55.00
2023-03-17T12:33:31.425Z,54.50
2023-03-17T12:34:44.737Z,54.70
2023-03-17T12:35:49.018Z,54.60
2023-03-17T12:36:56.701Z,55.10
2023-03-17T12:38:03.145Z,55.10
2023-03-17T12:39:13.358Z,55.10
2023-03-17T12:40:24.043Z,55.20
2023-03-17T12:42:05.658Z,55.30
2023-03-17T12:43:44.252Z,55.50
2023-03-17T12:45:24.111Z,55.40
2023-03-17T12:47:30.255Z,55.20
2023-03-17T12:49:30.902Z,55.20
2023-03-17T12:51:10.918Z,54.50
2023-03-17T12:52:28.138Z,55.20
2023-03-17T12:53:33.700Z,55.20
2023-03-17T12:54:39.701Z,55.20
2023-03-17T12:55:47.279Z,55.00
2023-03-17T12:56:50.760Z,55.10
2023-03-17T12:58:05.511Z,55.40
2023-03-17T12:59:17.091Z,55.70
2023-03-17T13:00:25.524Z,56.10
2023-03-17T13:01:34.566Z,56.40
2023-03-17T13:02:39.456Z,56.70
2023-03-17T13:04:15.780Z,56.70
2023-03-17T13:05:30.907Z,56.80
2023-03-17T13:06:44.100Z,56.90
2023-03-17T13:07:54.020Z,57.30
2023-03-17T13:08:57.845Z,57.50
2023-03-17T13:10:22.605Z,57.40
2023-03-17T13:11:47.706Z,57.40
2023-03-17T13:13:25.510Z,57.50
2023-03-17T13:14:43.002Z,58.00
2023-03-17T13:15:59.446Z,58.40
2023-03-17T13:17:32.048Z,58.90
2023-03-17T13:19:15.343Z,59.10
2023-03-17T13:20:20.706Z,59.00
2023-03-17T13:21:30.817Z,59.30
2023-03-17T13:22:39.193Z,59.40
2023-03-17T13:23:45.213Z,59.30
2023-03-17T13:24:52.426Z,59.40
2023-03-17T13:25:55.165Z,59.20
2023-03-17T13:27:01.688Z,58.90
2023-03-17T13:28:26.099Z,58.70
2023-03-17T13:29:48.870Z,58.40
2023-03-17T13:31:11.580Z,58.30
2023-03-17T13:32:40.740Z,58.20
2023-03-17T13:33:46.725Z,58.10
2023-03-17T13:34:55.784Z,58.30
2023-03-17T13:36:31.381Z,58.40
2023-03-17T13:37:48.479Z,58.10
2023-03-17T13:39:27.968Z,58.40
2023-03-17T13:40:42.048Z,57.50
2023-03-17T13:42:18.158Z,57.20
2023-03-17T13:43:52.602Z,57.20
2023-03-17T13:45:25.013Z,57.50
2023-03-17T13:46:41.047Z,56.90
2023-03-17T13:47:45.959Z,56.80
2023-03-17T13:48:50.265Z,56.70
2023-03-17T13:49:59.415Z,57.10
2023-03-17T13:51:15.601Z,57.30
2023-03-17T13:52:28.644Z,57.40
2023-03-17T13:53:36.134Z,57.90
2023-03-17T13:54:48.303Z,57.70
2023-03-17T13:56:25.005Z,58.00
2023-03-17T13:57:30.141Z,58.30
2023-03-17T13:58:36.141Z,58.30
2023-03-17T13:59:58.754Z,58.40
2023-03-17T14:01:07.580Z,58.50
2023-03-17T14:02:16.693Z,58.60
2023-03-17T14:03:29.066Z,58.70
2023-03-17T14:04:51.692Z,58.80
2023-03-17T14:05:56.604Z,58.80
2023-03-17T14:07:06.956Z,58.90
2023-03-17T14:08:20.340Z,58.80
2023-03-17T14:09:36.407Z,59.10
2023-03-17T14:10:39.307Z,59.40
2023-03-17T14:11:47.138Z,59.40
2023-03-17T14:13:00.626Z,59.40
2023-03-17T14:14:32.216Z,59.30
2023-03-17T14:15:48.151Z,59.40
2023-03-17T14:17:02.119Z,59.50
2023-03-17T14:18:11.485Z,59.60
2023-03-17T14:19:22.048Z,59.80
2023-03-17T14:20:28.798Z,59.50
2023-03-17T14:21:34.264Z,59.40
2023-03-17T14:22:45.423Z,59.40
2023-03-17T14:23:55.089Z,59.60
2023-03-17T14:25:03.897Z,59.40
2023-03-17T14:26:14.401Z,59.30
2023-03-17T14:27:17.298Z,59.10
2023-03-17T14:28:26.883Z,59.20
2023-03-17T14:29:33.206Z,59.10
2023-03-17T14:30:37.932Z,59.20
2023-03-17T14:31:47.468Z,59.20
2023-03-17T14:32:57.890Z,59.10
2023-03-17T14:34:03.829Z,58.80
2023-03-17T14:35:15.077Z,58.80
2023-03-17T14:36:20.544Z,58.60
2023-03-17T14:37:27.030Z,58.90
2023-03-17T14:38:33.855Z,59.00
2023-03-17T14:39:45.962Z,59.30